Time;durP1;ratioP1;P1;durP2;ratioP2;P2;SDS_P1;SDS_P2;PMS_P1;PMS_P2;Temp;Humidity;BMP_temperature;BMP_pressure;BME280_temperature;BME280_humidity;BME280_pressure;Samples;Min_cycle;Max_cycle;Signal;HPM_P1;HPM_P2
2022/10/22 00:01:16;;;;;;;;;;;;;;;;;;4968271;28;20010;-81
2022/10/22 00:03:42;;;;;;;;;;;;;;;;;;4968700;28;20354;-80
2022/10/22 00:06:08;;;;;;;;;;;;;;;;;;4988758;28;19949;-80
2022/10/22 00:08:35;;;;;;;;;;;;;;;;;;4974475;28;20449;-80
2022/10/22 00:11:01;;;;;;;;;;;;;;;;;;4989241;28;19922;-80
2022/10/22 00:13:27;;;;;;;;;;;;;;;;;;4991462;28;20031;-80
2022/10/22 00:15:53;;;;;;;;;;;;;;;;;;4983777;28;20330;-80
2022/10/22 00:18:20;;;;;;;;;;;;;;;;;;4985534;28;19914;-80
2022/10/22 00:20:46;;;;;;;;;;;;;;;;;;4981663;28;19968;-79
2022/10/22 00:23:12;;;;;;;;;;;;;;;;;;4967719;28;19969;-80
2022/10/22 00:25:38;;;;;;;;;;;;;;;;;;4968827;28;19961;-80
2022/10/22 00:28:04;;;;;;;;;;;;;;;;;;4967675;28;19930;-80
2022/10/22 00:30:31;;;;;;;;;;;;;;;;;;4971204;28;20370;-80
2022/10/22 00:32:57;;;;;;;;;;;;;;;;;;4990168;28;19952;-81
2022/10/22 00:35:23;;;;;;;;;;;;;;;;;;4984788;28;19960;-82
2022/10/22 00:37:49;;;;;;;;;;;;;;;;;;4985320;28;19986;-80
2022/10/22 00:40:15;;;;;;;;;;;;;;;;;;4968052;28;20440;-80
2022/10/22 00:42:42;;;;;;;;;;;;;;;;;;4985334;28;19957;-79
2022/10/22 00:45:08;;;;;;;;;;;;;;;;;;4963219;28;20378;-81
2022/10/22 00:47:34;;;;;;;;;;;;;;;;;;4981341;28;19972;-79
2022/10/22 00:50:00;;;;;;;;;;;;;;;;;;4974706;28;19980;-80
2022/10/22 00:52:26;;;;;;;;;;;;;;;;;;4983228;28;19957;-80
2022/10/22 00:54:52;;;;;;;;;;;;;;;;;;4968733;28;20403;-80
2022/10/22 00:57:19;;;;;;;;;;;;;;;;;;4983120;28;19946;-79
2022/10/22 00:59:45;;;;;;;;;;;;;;;;;;4983023;28;20024;-80
2022/10/22 01:02:11;;;;;;;;;;;;;;;;;;4949135;28;20155;-79
2022/10/22 01:04:37;;;;;;;;;;;;;;;;;;4968832;28;19972;-80
2022/10/22 01:07:03;;;;;;;;;;;;;;;;;;4983844;28;20385;-79
2022/10/22 01:09:30;;;;;;;;;;;;;;;;;;4984270;28;19957;-79
2022/10/22 01:11:56;;;;;;;;;;;;;;;;;;4966173;28;19979;-79
2022/10/22 01:14:22;;;;;;;;;;;;;;;;;;4980419;28;19972;-79
2022/10/22 01:16:48;;;;;;;;;;;;;;;;;;4965890;28;20388;-79
2022/10/22 01:19:15;;;;;;;;;;;;;;;;;;4985654;28;19972;-80
2022/10/22 01:21:41;;;;;;;;;;;;;;;;;;4965073;28;20312;-80
2022/10/22 01:24:07;;;;;;;;;;;;;;;;;;4969462;28;19952;-81
2022/10/22 01:26:33;;;;;;;;;;;;;;;;;;4966547;28;19926;-80
2022/10/22 01:28:59;;;;;;;;;;;;;;;;;;4983996;28;20483;-81
2022/10/22 01:31:26;;;;;;;;;;;;;;;;;;4965024;28;19914;-80
2022/10/22 01:33:52;;;;;;;;;;;;;;;;;;4953160;28;19929;-80
2022/10/22 01:36:18;;;;;;;;;;;;;;;;;;4965442;28;20541;-81
2022/10/22 01:38:44;;;;;;;;;;;;;;;;;;4963153;28;19957;-81
2022/10/22 01:41:10;;;;;;;;;;;;;;;;;;4963719;28;20373;-81
2022/10/22 01:43:37;;;;;;;;;;;;;;;;;;4984124;28;19960;-80
2022/10/22 01:46:03;;;;;;;;;;;;;;;;;;4985729;28;19926;-80
2022/10/22 01:48:29;;;;;;;;;;;;;;;;;;4962234;28;19914;-80
2022/10/22 01:50:55;;;;;;;;;;;;;;;;;;4964903;28;19921;-80
2022/10/22 01:53:22;;;;;;;;;;;;;;;;;;4984293;28;19973;-79
2022/10/22 01:55:48;;;;;;;;;;;;;;;;;;4981517;28;19922;-80
2022/10/22 01:58:14;;;;;;;;;;;;;;;;;;4967475;28;19921;-80
2022/10/22 02:00:41;;;;;;;;;;;;;;;;;;4985576;28;19957;-80
2022/10/22 02:03:07;;;;;;;;;;;;;;;;;;4982631;28;19957;-80
2022/10/22 02:05:33;;;;;;;;;;;;;;;;;;4972093;28;19964;-78
2022/10/22 02:07:59;;;;;;;;;;;;;;;;;;4951551;28;19922;-80
2022/10/22 02:10:25;;;;;;;;;;;;;;;;;;4984865;28;19922;-79
2022/10/22 02:12:52;;;;;;;;;;;;;;;;;;4967513;28;19957;-81
2022/10/22 02:15:18;;;;;;;;;;;;;;;;;;4985382;28;19953;-79
2022/10/22 02:17:44;;;;;;;;;;;;;;;;;;4984531;28;19961;-80
2022/10/22 02:20:10;;;;;;;;;;;;;;;;;;4970433;28;19954;-80
2022/10/22 02:22:37;;;;;;;;;;;;;;;;;;4974392;28;19984;-80
2022/10/22 02:25:03;;;;;;;;;;;;;;;;;;4987578;28;20342;-80
2022/10/22 02:27:29;;;;;;;;;;;;;;;;;;4986174;28;19972;-80
2022/10/22 02:29:55;;;;;;;;;;;;;;;;;;4983574;28;19968;-80
2022/10/22 02:32:21;;;;;;;;;;;;;;;;;;4972384;28;20022;-80
2022/10/22 02:34:48;;;;;;;;;;;;;;;;;;4987696;28;19968;-79
2022/10/22 02:37:14;;;;;;;;;;;;;;;;;;4984203;28;20656;-80
2022/10/22 02:39:40;;;;;;;;;;;;;;;;;;4970894;28;19961;-79
2022/10/22 02:42:06;;;;;;;;;;;;;;;;;;4981907;28;19926;-80
2022/10/22 02:44:32;;;;;;;;;;;;;;;;;;4981298;28;20033;-79
2022/10/22 02:46:59;;;;;;;;;;;;;;;;;;4969811;28;20475;-80
2022/10/22 02:49:25;;;;;;;;;;;;;;;;;;4988302;28;19948;-79
2022/10/22 02:51:51;;;;;;;;;;;;;;;;;;4987029;28;19957;-80
2022/10/22 02:54:17;;;;;;;;;;;;;;;;;;4991969;28;20000;-79
2022/10/22 02:56:43;;;;;;;;;;;;;;;;;;4987319;28;19968;-79
2022/10/22 02:59:09;;;;;;;;;;;;;;;;;;4990203;28;19976;-79
2022/10/22 03:01:36;;;;;;;;;;;;;;;;;;4991459;28;19972;-79
2022/10/22 03:04:02;;;;;;;;;;;;;;;;;;4972030;28;19964;-80
2022/10/22 03:06:28;;;;;;;;;;;;;;;;;;4961600;28;19957;-80
2022/10/22 03:08:54;;;;;;;;;;;;;;;;;;4973497;28;19953;-80
2022/10/22 03:11:20;;;;;;;;;;;;;;;;;;4988281;28;20407;-78
2022/10/22 03:13:47;;;;;;;;;;;;;;;;;;4987210;28;19954;-79
2022/10/22 03:16:13;;;;;;;;;;;;;;;;;;4989993;28;20361;-79
2022/10/22 03:18:39;;;;;;;;;;;;;;;;;;4956669;28;19961;-79
2022/10/22 03:21:05;;;;;;;;;;;;;;;;;;4974530;28;19960;-81
2022/10/22 03:23:31;;;;;;;;;;;;;;;;;;4970504;28;19976;-79
2022/10/22 03:25:58;;;;;;;;;;;;;;;;;;4986941;28;20354;-80
2022/10/22 03:28:25;;;;;;;;;;;;;;;;;;4970506;28;19957;-78
2022/10/22 03:30:51;;;;;;;;;;;;;;;;;;4986729;28;20033;-79
2022/10/22 03:33:18;;;;;;;;;;;;;;;;;;4985945;28;19980;-79
2022/10/22 03:35:44;;;;;;;;;;;;;;;;;;4969417;28;19949;-80
2022/10/22 03:38:10;;;;;;;;;;;;;;;;;;4970206;28;19965;-80
2022/10/22 03:40:36;;;;;;;;;;;;;;;;;;4986020;28;19953;-80
2022/10/22 03:43:02;;;;;;;;;;;;;;;;;;4988882;28;19961;-79
2022/10/22 03:45:28;;;;;;;;;;;;;;;;;;4983304;28;19965;-79
2022/10/22 03:47:55;;;;;;;;;;;;;;;;;;4985753;28;19964;-80
2022/10/22 03:50:21;;;;;;;;;;;;;;;;;;4985167;28;19968;-79
2022/10/22 03:52:47;;;;;;;;;;;;;;;;;;4967540;28;19972;-79
2022/10/22 03:55:13;;;;;;;;;;;;;;;;;;4988219;28;19997;-80
2022/10/22 03:57:39;;;;;;;;;;;;;;;;;;4984741;28;20350;-79
2022/10/22 04:00:06;;;;;;;;;;;;;;;;;;4985634;28;19945;-80
2022/10/22 04:02:32;;;;;;;;;;;;;;;;;;4985353;28;19957;-79
2022/10/22 04:04:58;;;;;;;;;;;;;;;;;;4983664;28;21529;-80
2022/10/22 04:07:24;;;;;;;;;;;;;;;;;;4982291;28;19961;-79
2022/10/22 04:09:50;;;;;;;;;;;;;;;;;;4967589;28;19957;-80
2022/10/22 04:12:17;;;;;;;;;;;;;;;;;;4987810;28;19965;-79
2022/10/22 04:14:43;;;;;;;;;;;;;;;;;;4977083;28;19953;-79
2022/10/22 04:17:09;;;;;;;;;;;;;;;;;;4983256;28;19918;-81
2022/10/22 04:19:35;;;;;;;;;;;;;;;;;;4990457;28;19921;-79
2022/10/22 04:22:01;;;;;;;;;;;;;;;;;;4978658;28;20532;-81
2022/10/22 04:24:28;;;;;;;;;;;;;;;;;;4993288;28;19961;-81
2022/10/22 04:26:54;;;;;;;;;;;;;;;;;;4983605;28;20004;-82
2022/10/22 04:29:20;;;;;;;;;;;;;;;;;;4988057;28;19949;-82
2022/10/22 04:31:46;;;;;;;;;;;;;;;;;;4979286;28;19961;-82
2022/10/22 04:34:13;;;;;;;;;;;;;;;;;;4987508;28;19968;-81
2022/10/22 04:36:39;;;;;;;;;;;;;;;;;;4983355;28;20094;-79
2022/10/22 04:39:05;;;;;;;;;;;;;;;;;;4976792;28;19957;-80
2022/10/22 04:41:31;;;;;;;;;;;;;;;;;;4985321;28;19916;-79
2022/10/22 04:43:58;;;;;;;;;;;;;;;;;;4984971;28;19984;-81
2022/10/22 04:46:24;;;;;;;;;;;;;;;;;;4986335;28;19965;-81
2022/10/22 04:48:50;;;;;;;;;;;;;;;;;;4966721;28;19953;-82
2022/10/22 04:51:16;;;;;;;;;;;;;;;;;;4985049;28;19957;-81
2022/10/22 04:53:42;;;;;;;;;;;;;;;;;;4985725;28;19961;-80
2022/10/22 04:56:08;;;;;;;;;;;;;;;;;;4949752;28;19953;-80
2022/10/22 04:58:35;;;;;;;;;;;;;;;;;;4963572;28;19922;-80
2022/10/22 05:01:01;;;;;;;;;;;;;;;;;;4985136;28;19977;-81
2022/10/22 05:03:27;;;;;;;;;;;;;;;;;;4992194;28;20011;-80
2022/10/22 05:05:53;;;;;;;;;;;;;;;;;;4985953;28;20042;-82
2022/10/22 05:08:19;;;;;;;;;;;;;;;;;;4985954;28;19945;-81
2022/10/22 05:10:46;;;;;;;;;;;;;;;;;;4972506;28;19925;-80
2022/10/22 05:13:12;;;;;;;;;;;;;;;;;;4986037;28;20519;-79
2022/10/22 05:15:38;;;;;;;;;;;;;;;;;;4984359;28;19984;-79
2022/10/22 05:18:04;;;;;;;;;;;;;;;;;;4974395;28;19969;-80
2022/10/22 05:20:30;;;;;;;;;;;;;;;;;;4985191;28;19972;-81
2022/10/22 05:22:56;;;;;;;;;;;;;;;;;;4976509;28;19957;-80
2022/10/22 05:25:23;;;;;;;;;;;;;;;;;;4986655;28;20393;-80
2022/10/22 05:27:49;;;;;;;;;;;;;;;;;;4967255;28;19972;-80
2022/10/22 05:30:15;;;;;;;;;;;;;;;;;;4984298;28;19926;-81
2022/10/22 05:32:41;;;;;;;;;;;;;;;;;;4984937;28;20377;-81
2022/10/22 05:35:08;;;;;;;;;;;;;;;;;;4967390;28;19953;-80
2022/10/22 05:37:34;;;;;;;;;;;;;;;;;;4979849;28;19972;-78
2022/10/22 05:40:00;;;;;;;;;;;;;;;;;;4984453;28;19958;-80
2022/10/22 05:42:26;;;;;;;;;;;;;;;;;;4971673;28;19968;-80
2022/10/22 05:44:53;;;;;;;;;;;;;;;;;;4980920;28;20465;-80
2022/10/22 05:47:19;;;;;;;;;;;;;;;;;;4982256;28;19922;-80
2022/10/22 05:49:45;;;;;;;;;;;;;;;;;;4966866;28;20479;-79
2022/10/22 05:52:11;;;;;;;;;;;;;;;;;;4984604;28;19953;-80
2022/10/22 05:54:37;;;;;;;;;;;;;;;;;;4984152;28;19965;-79
2022/10/22 05:57:03;;;;;;;;;;;;;;;;;;4979099;28;19977;-79
2022/10/22 05:59:30;;;;;;;;;;;;;;;;;;4988663;28;19945;-78
2022/10/22 06:01:56;;;;;;;;;;;;;;;;;;4987577;28;20428;-79
2022/10/22 06:04:22;;;;;;;;;;;;;;;;;;4971057;28;19968;-79
2022/10/22 06:06:48;;;;;;;;;;;;;;;;;;4970760;28;19922;-80
2022/10/22 06:09:14;;;;;;;;;;;;;;;;;;4970840;28;19957;-81
2022/10/22 06:11:41;;;;;;;;;;;;;;;;;;4987190;28;19960;-79
2022/10/22 06:14:07;;;;;;;;;;;;;;;;;;4989116;28;19968;-81
2022/10/22 06:16:33;;;;;;;;;;;;;;;;;;4987231;28;20627;-81
2022/10/22 06:19:00;;;;;;;;;;;;;;;;;;4969287;28;19973;-79
2022/10/22 06:21:27;;;;;;;;;;;;;;;;;;4971045;28;19972;-78
2022/10/22 06:23:53;;;;;;;;;;;;;;;;;;4987238;28;19949;-78
2022/10/22 06:26:19;;;;;;;;;;;;;;;;;;4970549;28;20654;-78
2022/10/22 06:28:45;;;;;;;;;;;;;;;;;;4972224;28;19961;-78
2022/10/22 06:31:11;;;;;;;;;;;;;;;;;;4986954;28;19968;-78
2022/10/22 06:33:41;;;;;;;;;;;;;;;;;;4984607;28;19968;-77
2022/10/22 06:36:07;;;;;;;;;;;;;;;;;;4981170;28;19956;-78
2022/10/22 06:38:33;;;;;;;;;;;;;;;;;;4968771;28;19965;-80
2022/10/22 06:40:59;;;;;;;;;;;;;;;;;;4987903;28;19976;-79
2022/10/22 06:43:25;;;;;;;;;;;;;;;;;;4993168;28;19945;-78
2022/10/22 06:45:52;;;;;;;;;;;;;;;;;;4989658;28;19949;-81
2022/10/22 06:48:18;;;;;;;;;;;;;;;;;;4971399;28;20459;-80
2022/10/22 06:50:44;;;;;;;;;;;;;;;;;;4986280;28;19964;-80
2022/10/22 06:53:10;;;;;;;;;;;;;;;;;;4968042;28;20367;-80
2022/10/22 06:55:36;;;;;;;;;;;;;;;;;;4987105;28;20583;-80
2022/10/22 06:58:03;;;;;;;;;;;;;;;;;;4973987;28;19968;-80
2022/10/22 07:00:29;;;;;;;;;;;;;;;;;;4952973;28;19921;-80
2022/10/22 07:02:55;;;;;;;;;;;;;;;;;;4987985;28;20000;-81
2022/10/22 07:05:21;;;;;;;;;;;;;;;;;;4987260;28;19949;-82
2022/10/22 07:07:48;;;;;;;;;;;;;;;;;;4986092;28;19968;-84
2022/10/22 07:10:14;;;;;;;;;;;;;;;;;;4988253;28;19964;-82
2022/10/22 07:12:40;;;;;;;;;;;;;;;;;;4983797;28;20606;-80
2022/10/22 07:15:06;;;;;;;;;;;;;;;;;;4969470;28;20009;-82
2022/10/22 07:17:32;;;;;;;;;;;;;;;;;;4987771;28;19961;-82
2022/10/22 07:19:58;;;;;;;;;;;;;;;;;;4967892;28;19960;-83
2022/10/22 07:22:25;;;;;;;;;;;;;;;;;;4970223;28;19954;-77
2022/10/22 07:24:51;;;;;;;;;;;;;;;;;;4965833;28;20598;-76
2022/10/22 07:27:17;;;;;;;;;;;;;;;;;;4985938;28;20499;-76
2022/10/22 07:29:43;;;;;;;;;;;;;;;;;;4983690;28;19957;-76
2022/10/22 07:32:09;;;;;;;;;;;;;;;;;;4986918;28;19969;-76
2022/10/22 07:34:36;;;;;;;;;;;;;;;;;;4983684;28;19984;-76
2022/10/22 07:37:02;;;;;;;;;;;;;;;;;;4967532;28;19964;-75
2022/10/22 07:39:28;;;;;;;;;;;;;;;;;;4986488;28;19968;-75
2022/10/22 07:41:54;;;;;;;;;;;;;;;;;;4969845;28;19957;-76
2022/10/22 07:44:20;;;;;;;;;;;;;;;;;;4984802;28;19964;-75
2022/10/22 07:46:46;;;;;;;;;;;;;;;;;;4989802;28;19961;-77
2022/10/22 07:49:13;;;;;;;;;;;;;;;;;;4971354;28;19984;-78
2022/10/22 07:51:39;;;;;;;;;;;;;;;;;;4986543;28;19954;-77
2022/10/22 07:54:05;;;;;;;;;;;;;;;;;;4974878;28;19965;-81
2022/10/22 07:56:31;;;;;;;;;;;;;;;;;;4986608;28;19918;-78
2022/10/22 07:58:58;;;;;;;;;;;;;;;;;;4986431;28;19961;-79
2022/10/22 08:01:24;;;;;;;;;;;;;;;;;;4988838;28;20362;-82
2022/10/22 08:03:50;;;;;;;;;;;;;;;;;;4987043;28;19969;-81
2022/10/22 08:06:16;;;;;;;;;;;;;;;;;;4954997;28;19949;-82
2022/10/22 08:08:44;;;;;;;;;;;;;;;;;;4984117;28;20310;-80
2022/10/22 08:11:10;;;;;;;;;;;;;;;;;;4971067;28;19972;-79
2022/10/22 08:13:37;;;;;;;;;;;;;;;;;;4967653;28;20022;-77
2022/10/22 08:16:03;;;;;;;;;;;;;;;;;;4950231;28;19957;-79
2022/10/22 08:18:29;;;;;;;;;;;;;;;;;;4988766;28;19953;-81
2022/10/22 08:20:55;;;;;;;;;;;;;;;;;;4986158;28;20330;-81
2022/10/22 08:23:21;;;;;;;;;;;;;;;;;;4970377;28;19937;-81
2022/10/22 08:25:48;;;;;;;;;;;;;;;;;;4984120;28;19976;-80
2022/10/22 08:28:14;;;;;;;;;;;;;;;;;;4985568;28;19954;-78
2022/10/22 08:30:41;;;;;;;;;;;;;;;;;;4968623;28;20397;-81
2022/10/22 08:33:07;;;;;;;;;;;;;;;;;;4986115;28;19969;-82
2022/10/22 08:35:34;;;;;;;;;;;;;;;;;;4983198;28;19969;-86
2022/10/22 08:38:00;;;;;;;;;;;;;;;;;;4950444;28;19929;-81
2022/10/22 08:40:26;;;;;;;;;;;;;;;;;;4968961;28;19957;-86
2022/10/22 08:42:53;;;;;;;;;;;;;;;;;;4982925;28;19958;-84
2022/10/22 08:45:21;;;;;;;;;;;;;;;;;;4968968;28;20033;-85
2022/10/22 08:47:47;;;;;;;;;;;;;;;;;;4951199;28;19956;-83
2022/10/22 08:50:15;;;;;;;;;;;;;;;;;;4963923;28;19980;-81
2022/10/22 08:52:41;;;;;;;;;;;;;;;;;;4964238;28;19977;-82
2022/10/22 08:55:08;;;;;;;;;;;;;;;;;;4985764;28;19970;-82
2022/10/22 08:57:34;;;;;;;;;;;;;;;;;;4985168;28;19945;-83
2022/10/22 09:00:00;;;;;;;;;;;;;;;;;;4956824;28;20520;-87
2022/10/22 09:02:26;;;;;;;;;;;;;;;;;;4967859;28;19918;-80
2022/10/22 09:04:52;;;;;;;;;;;;;;;;;;4973261;28;19921;-83
2022/10/22 09:07:19;;;;;;;;;;;;;;;;;;4988332;28;19956;-88
2022/10/22 09:09:46;;;;;;;;;;;;;;;;;;4970077;28;19917;-89
2022/10/22 09:12:12;;;;;;;;;;;;;;;;;;4988207;28;19914;-89
2022/10/22 09:14:38;;;;;;;;;;;;;;;;;;4985284;28;19949;-87
2022/10/22 09:17:05;;;;;;;;;;;;;;;;;;4987844;28;19968;-84
2022/10/22 09:19:31;;;;;;;;;;;;;;;;;;4969372;28;20000;-87
2022/10/22 09:21:57;;;;;;;;;;;;;;;;;;4985037;28;20009;-84
2022/10/22 09:24:23;;;;;;;;;;;;;;;;;;4989883;28;19922;-86
2022/10/22 09:26:50;;;;;;;;;;;;;;;;;;4985391;28;20367;-86
2022/10/22 09:29:17;;;;;;;;;;;;;;;;;;4985043;28;19953;-85
2022/10/22 09:31:45;;;;;;;;;;;;;;;;;;4972925;28;19961;-88
2022/10/22 09:34:12;;;;;;;;;;;;;;;;;;4970435;28;19933;-84
2022/10/22 09:36:38;;;;;;;;;;;;;;;;;;4963079;28;19991;-85
2022/10/22 09:39:04;;;;;;;;;;;;;;;;;;4955289;28;19981;-86
2022/10/22 09:41:30;;;;;;;;;;;;;;;;;;4983630;28;19956;-80
2022/10/22 09:43:57;;;;;;;;;;;;;;;;;;4986006;28;19960;-87
2022/10/22 09:46:23;;;;;;;;;;;;;;;;;;4970114;28;19965;-81
2022/10/22 09:48:49;;;;;;;;;;;;;;;;;;4950975;28;19922;-80
2022/10/22 09:51:15;;;;;;;;;;;;;;;;;;4966077;28;20332;-83
2022/10/22 09:53:42;;;;;;;;;;;;;;;;;;4968107;28;19930;-86
2022/10/22 09:56:08;;;;;;;;;;;;;;;;;;4988642;28;20436;-85
2022/10/22 09:58:34;;;;;;;;;;;;;;;;;;4955464;28;20429;-84
2022/10/22 10:01:00;;;;;;;;;;;;;;;;;;4952759;28;22144;-81
2022/10/22 10:03:27;;;;;;;;;;;;;;;;;;4971530;28;20036;-85
2022/10/22 10:05:53;;;;;;;;;;;;;;;;;;4963771;28;20345;-82
2022/10/22 10:08:20;;;;;;;;;;;;;;;;;;4967006;28;19918;-84
2022/10/22 10:10:46;;;;;;;;;;;;;;;;;;4951883;28;19954;-80
2022/10/22 10:13:12;;;;;;;;;;;;;;;;;;4955756;28;19922;-86
2022/10/22 10:15:38;;;;;;;;;;;;;;;;;;4985924;28;19918;-86
2022/10/22 10:18:05;;;;;;;;;;;;;;;;;;4968348;28;19968;-84
2022/10/22 10:20:31;;;;;;;;;;;;;;;;;;4967786;28;20354;-83
2022/10/22 10:22:57;;;;;;;;;;;;;;;;;;4982469;28;19941;-86
2022/10/22 10:25:23;;;;;;;;;;;;;;;;;;4968201;28;19980;-83
2022/10/22 10:27:49;;;;;;;;;;;;;;;;;;4980152;28;19976;-85
2022/10/22 10:30:17;;;;;;;;;;;;;;;;;;4970285;28;19913;-87
2022/10/22 10:32:43;;;;;;;;;;;;;;;;;;4963278;28;19921;-85
2022/10/22 10:35:10;;;;;;;;;;;;;;;;;;4978976;28;19968;-84
2022/10/22 10:37:36;;;;;;;;;;;;;;;;;;4952002;28;19961;-85
2022/10/22 10:40:04;;;;;;;;;;;;;;;;;;4973822;28;19921;-88
2022/10/22 10:42:30;;;;;;;;;;;;;;;;;;4957112;28;20021;-87
2022/10/22 10:44:57;;;;;;;;;;;;;;;;;;4987683;28;19975;-87
2022/10/22 10:47:23;;;;;;;;;;;;;;;;;;4972361;28;19960;-88
2022/10/22 10:49:49;;;;;;;;;;;;;;;;;;4963891;28;19918;-86
2022/10/22 10:52:15;;;;;;;;;;;;;;;;;;4979999;28;19968;-86
2022/10/22 10:54:41;;;;;;;;;;;;;;;;;;4959815;28;19953;-86
2022/10/22 10:57:08;;;;;;;;;;;;;;;;;;4976603;28;20210;-87
2022/10/22 10:59:34;;;;;;;;;;;;;;;;;;4960596;28;19921;-84
2022/10/22 11:02:00;;;;;;;;;;;;;;;;;;4951834;28;20639;-87
2022/10/22 11:04:26;;;;;;;;;;;;;;;;;;4972203;28;19968;-84
2022/10/22 11:06:53;;;;;;;;;;;;;;;;;;4961409;28;20614;-88
2022/10/22 11:09:19;;;;;;;;;;;;;;;;;;4972128;28;19949;-85
2022/10/22 11:11:45;;;;;;;;;;;;;;;;;;4969979;28;19980;-84
2022/10/22 11:14:11;;;;;;;;;;;;;;;;;;4987765;28;19938;-84
2022/10/22 11:16:38;;;;;;;;;;;;;;;;;;4969533;28;19964;-81
2022/10/22 11:19:04;;;;;;;;;;;;;;;;;;4988834;28;19945;-84
2022/10/22 11:21:31;;;;;;;;;;;;;;;;;;4954242;28;19988;-81
2022/10/22 11:23:57;;;;;;;;;;;;;;;;;;4985682;28;19987;-80
2022/10/22 11:26:23;;;;;;;;;;;;;;;;;;4991860;28;19953;-81
2022/10/22 11:28:49;;;;;;;;;;;;;;;;;;4954501;28;19961;-81
2022/10/22 11:31:17;;;;;;;;;;;;;;;;;;4987599;28;19949;-79
2022/10/22 11:33:43;;;;;;;;;;;;;;;;;;4951712;28;20620;-79
2022/10/22 11:36:09;;;;;;;;;;;;;;;;;;4968397;28;19961;-81
2022/10/22 11:38:35;;;;;;;;;;;;;;;;;;4984675;28;20040;-81
2022/10/22 11:41:02;;;;;;;;;;;;;;;;;;4984208;28;19952;-93
2022/10/22 11:43:28;;;;;;;;;;;;;;;;;;4969661;28;20015;-80
2022/10/22 11:45:54;;;;;;;;;;;;;;;;;;4982763;28;19965;-83
2022/10/22 11:48:21;;;;;;;;;;;;;;;;;;4969335;28;19972;-88
2022/10/22 11:50:47;;;;;;;;;;;;;;;;;;4971262;28;20321;-87
2022/10/22 11:53:13;;;;;;;;;;;;;;;;;;4984136;28;19962;-82
2022/10/22 11:55:47;;;;;;;;;;;;;;;;;;4978570;28;19957;-90
2022/10/22 11:58:13;;;;;;;;;;;;;;;;;;4990609;28;19992;-85
2022/10/22 12:00:42;;;;;;;;;;;;;;;;;;4985224;28;19946;-88
2022/10/22 12:03:08;;;;;;;;;;;;;;;;;;4967211;28;19949;-84
2022/10/22 12:05:34;;;;;;;;;;;;;;;;;;4983682;28;20408;-84
2022/10/22 12:08:01;;;;;;;;;;;;;;;;;;4949415;28;19988;-80
2022/10/22 12:10:28;;;;;;;;;;;;;;;;;;4970430;28;19922;-81
2022/10/22 12:12:54;;;;;;;;;;;;;;;;;;4964137;28;19961;-85
2022/10/22 12:15:20;;;;;;;;;;;;;;;;;;4983300;28;19961;-85
2022/10/22 12:17:46;;;;;;;;;;;;;;;;;;4951727;28;19960;-84
2022/10/22 12:20:13;;;;;;;;;;;;;;;;;;4966521;28;20706;-85
2022/10/22 12:22:39;;;;;;;;;;;;;;;;;;4954936;28;19958;-87
2022/10/22 12:25:05;;;;;;;;;;;;;;;;;;4967668;28;19981;-85
2022/10/22 12:27:31;;;;;;;;;;;;;;;;;;4963624;28;20573;-83
2022/10/22 12:29:58;;;;;;;;;;;;;;;;;;4966325;28;19922;-84
2022/10/22 12:32:24;;;;;;;;;;;;;;;;;;4954771;28;19964;-82
2022/10/22 12:34:50;;;;;;;;;;;;;;;;;;4982273;28;19972;-85
2022/10/22 12:37:16;;;;;;;;;;;;;;;;;;4968295;28;20836;-81
2022/10/22 12:39:42;;;;;;;;;;;;;;;;;;4983716;28;19980;-86
2022/10/22 12:42:09;;;;;;;;;;;;;;;;;;4971312;28;19956;-80
2022/10/22 12:44:35;;;;;;;;;;;;;;;;;;4967025;28;19926;-81
2022/10/22 12:47:01;;;;;;;;;;;;;;;;;;4966996;28;21960;-79
2022/10/22 12:49:28;;;;;;;;;;;;;;;;;;4984727;28;19925;-82
2022/10/22 12:51:54;;;;;;;;;;;;;;;;;;4991728;28;19921;-86
2022/10/22 12:54:20;;;;;;;;;;;;;;;;;;4985546;28;20445;-86
2022/10/22 12:56:46;;;;;;;;;;;;;;;;;;4979053;28;19954;-85
2022/10/22 12:59:12;;;;;;;;;;;;;;;;;;4956963;28;19949;-84
2022/10/22 13:01:39;;;;;;;;;;;;;;;;;;4970985;28;19937;-87
2022/10/22 13:04:05;;;;;;;;;;;;;;;;;;4985647;28;19980;-87
2022/10/22 13:06:31;;;;;;;;;;;;;;;;;;4982953;28;19953;-82
2022/10/22 13:08:58;;;;;;;;;;;;;;;;;;4986726;28;19968;-86
2022/10/22 13:11:24;;;;;;;;;;;;;;;;;;4984135;28;19969;-86
2022/10/22 13:13:50;;;;;;;;;;;;;;;;;;4979418;28;20297;-79
2022/10/22 13:16:16;;;;;;;;;;;;;;;;;;4981893;28;19957;-83
2022/10/22 13:18:43;;;;;;;;;;;;;;;;;;4967083;28;19984;-85
2022/10/22 13:21:09;;;;;;;;;;;;;;;;;;4985050;28;19972;-80
2022/10/22 13:23:37;;;;;;;;;;;;;;;;;;4981522;28;19917;-83
2022/10/22 13:26:03;;;;;;;;;;;;;;;;;;4982080;28;19922;-89
2022/10/22 13:28:29;;;;;;;;;;;;;;;;;;4951188;28;19975;-78
2022/10/22 13:30:56;;;;;;;;;;;;;;;;;;4986057;28;20370;-77
2022/10/22 13:33:22;;;;;;;;;;;;;;;;;;4967411;28;20464;-80
2022/10/22 13:35:48;;;;;;;;;;;;;;;;;;4981847;28;19980;-77
2022/10/22 13:38:14;;;;;;;;;;;;;;;;;;4973246;28;19927;-78
2022/10/22 13:40:41;;;;;;;;;;;;;;;;;;4966142;28;19925;-76
2022/10/22 13:43:07;;;;;;;;;;;;;;;;;;4965579;28;19969;-76
2022/10/22 13:45:33;;;;;;;;;;;;;;;;;;4966171;28;19968;-78
2022/10/22 13:47:59;;;;;;;;;;;;;;;;;;4984280;28;20341;-77
2022/10/22 13:50:25;;;;;;;;;;;;;;;;;;4973103;28;19965;-82
2022/10/22 13:52:52;;;;;;;;;;;;;;;;;;4980248;28;19960;-76
2022/10/22 13:55:18;;;;;;;;;;;;;;;;;;4983006;28;19969;-78
2022/10/22 13:57:44;;;;;;;;;;;;;;;;;;4968502;28;19981;-77
2022/10/22 14:00:10;;;;;;;;;;;;;;;;;;4987618;28;20044;-83
2022/10/22 14:02:36;;;;;;;;;;;;;;;;;;4961264;28;19925;-77
2022/10/22 14:05:05;;;;;;;;;;;;;;;;;;4962017;28;20357;-77
2022/10/22 14:07:31;;;;;;;;;;;;;;;;;;4981598;28;20029;-79
2022/10/22 14:09:57;;;;;;;;;;;;;;;;;;4964682;28;19961;-79
2022/10/22 14:12:24;;;;;;;;;;;;;;;;;;4948527;28;20063;-78
2022/10/22 14:14:50;;;;;;;;;;;;;;;;;;4964812;28;19957;-82
2022/10/22 14:17:18;;;;;;;;;;;;;;;;;;4986735;28;20032;-78
2022/10/22 14:19:44;;;;;;;;;;;;;;;;;;4987417;28;19972;-78
2022/10/22 14:22:10;;;;;;;;;;;;;;;;;;4989482;28;20374;-78
2022/10/22 14:24:37;;;;;;;;;;;;;;;;;;4986425;28;20412;-78
2022/10/22 14:27:03;;;;;;;;;;;;;;;;;;4989134;28;19964;-77
2022/10/22 14:29:29;;;;;;;;;;;;;;;;;;4971418;28;19972;-77
2022/10/22 14:31:55;;;;;;;;;;;;;;;;;;4969622;28;21649;-77
2022/10/22 14:34:21;;;;;;;;;;;;;;;;;;4991448;28;20671;-77
2022/10/22 14:36:47;;;;;;;;;;;;;;;;;;4986362;28;19952;-77
2022/10/22 14:39:14;;;;;;;;;;;;;;;;;;4984842;28;19964;-77
2022/10/22 14:41:40;;;;;;;;;;;;;;;;;;4957046;28;20386;-77
2022/10/22 14:44:11;;;;;;;;;;;;;;;;;;4977025;28;19953;-78
2022/10/22 14:46:39;;;;;;;;;;;;;;;;;;4986156;28;20503;-78
2022/10/22 14:49:05;;;;;;;;;;;;;;;;;;4987198;28;20032;-78
2022/10/22 14:51:31;;;;;;;;;;;;;;;;;;4987387;28;19972;-78
2022/10/22 14:53:57;;;;;;;;;;;;;;;;;;4985608;28;19957;-78
2022/10/22 14:56:23;;;;;;;;;;;;;;;;;;4953780;28;19957;-78
2022/10/22 14:58:50;;;;;;;;;;;;;;;;;;4972104;28;19960;-78
2022/10/22 15:01:16;;;;;;;;;;;;;;;;;;4969845;28;19949;-76
2022/10/22 15:03:42;;;;;;;;;;;;;;;;;;4970083;28;19969;-82
2022/10/22 15:06:08;;;;;;;;;;;;;;;;;;4951518;28;19964;-85
2022/10/22 15:08:35;;;;;;;;;;;;;;;;;;4952272;28;19945;-79
2022/10/22 15:11:01;;;;;;;;;;;;;;;;;;4967589;28;20300;-79
2022/10/22 15:13:30;;;;;;;;;;;;;;;;;;4985103;28;19961;-80
2022/10/22 15:15:56;;;;;;;;;;;;;;;;;;4981575;28;19965;-81
2022/10/22 15:18:22;;;;;;;;;;;;;;;;;;4985781;28;19969;-79
2022/10/22 15:20:48;;;;;;;;;;;;;;;;;;4983603;28;20335;-82
2022/10/22 15:23:14;;;;;;;;;;;;;;;;;;4969628;28;20041;-81
2022/10/22 15:25:40;;;;;;;;;;;;;;;;;;4969745;28;20338;-79
2022/10/22 15:28:07;;;;;;;;;;;;;;;;;;4967161;28;19996;-84
2022/10/22 15:30:33;;;;;;;;;;;;;;;;;;4957567;28;20349;-82
2022/10/22 15:32:59;;;;;;;;;;;;;;;;;;4967908;28;19960;-83
2022/10/22 15:35:26;;;;;;;;;;;;;;;;;;4952246;28;20432;-79
2022/10/22 15:37:52;;;;;;;;;;;;;;;;;;4988474;28;19945;-79
2022/10/22 15:40:21;;;;;;;;;;;;;;;;;;4987198;28;19957;-80
2022/10/22 15:42:47;;;;;;;;;;;;;;;;;;4967570;28;19964;-78
2022/10/22 15:45:14;;;;;;;;;;;;;;;;;;4987389;28;19961;-79
2022/10/22 15:47:40;;;;;;;;;;;;;;;;;;4994095;28;19925;-78
2022/10/22 15:50:06;;;;;;;;;;;;;;;;;;4977869;28;19986;-78
2022/10/22 15:52:33;;;;;;;;;;;;;;;;;;4972045;28;20445;-80
2022/10/22 15:55:02;;;;;;;;;;;;;;;;;;4986128;28;19976;-79
2022/10/22 15:57:29;;;;;;;;;;;;;;;;;;4986106;28;19972;-80
2022/10/22 15:59:55;;;;;;;;;;;;;;;;;;4972854;28;19979;-79
2022/10/22 16:02:21;;;;;;;;;;;;;;;;;;4986957;28;19937;-79
2022/10/22 16:04:47;;;;;;;;;;;;;;;;;;4968147;28;19984;-78
2022/10/22 16:07:13;;;;;;;;;;;;;;;;;;4984407;28;19960;-80
2022/10/22 16:09:40;;;;;;;;;;;;;;;;;;4971310;28;19961;-78
2022/10/22 16:12:06;;;;;;;;;;;;;;;;;;4970008;28;19977;-79
2022/10/22 16:14:32;;;;;;;;;;;;;;;;;;4954762;28;20354;-78
2022/10/22 16:16:58;;;;;;;;;;;;;;;;;;4984970;28;19960;-78
2022/10/22 16:19:24;;;;;;;;;;;;;;;;;;4973891;28;19968;-78
2022/10/22 16:21:51;;;;;;;;;;;;;;;;;;4967064;28;19962;-78
2022/10/22 16:24:17;;;;;;;;;;;;;;;;;;4988311;28;20340;-77
2022/10/22 16:26:43;;;;;;;;;;;;;;;;;;4987475;28;20459;-79
2022/10/22 16:29:11;;;;;;;;;;;;;;;;;;4968475;28;20410;-79
2022/10/22 16:31:37;;;;;;;;;;;;;;;;;;4967305;28;19969;-78
2022/10/22 16:34:03;;;;;;;;;;;;;;;;;;4965761;28;19969;-78
2022/10/22 16:36:30;;;;;;;;;;;;;;;;;;4952047;28;20420;-78
2022/10/22 16:38:56;;;;;;;;;;;;;;;;;;4962771;28;19918;-78